createdAt,value
2019-05-10T10:10:29.982Z,22.459106
2019-05-10T10:10:59.031Z,22.50946
2019-05-10T10:11:27.771Z,22.549744
2019-05-10T10:11:58.957Z,22.559814
2019-05-10T10:12:25.634Z,22.610168
2019-05-10T10:12:58.171Z,22.610168
2019-05-10T10:13:39.236Z,22.63031
2019-05-10T10:13:58.858Z,22.63031
2019-05-10T10:14:28.122Z,22.650452
2019-05-10T10:14:55.696Z,22.620239
2019-05-10T10:15:29.654Z,22.670593
2019-05-10T10:15:57.956Z,22.670593
2019-05-10T10:16:27.958Z,22.650452
2019-05-10T10:16:58.138Z,22.680664
2019-05-10T12:57:51.273Z,24.533691
2019-05-10T12:58:57.372Z,24.624329
2019-05-10T13:01:04.986Z,24.402771
2019-05-10T13:02:10.606Z,24.060364
2019-05-10T13:03:12.532Z,23.919373
2019-05-10T13:04:13.208Z,23.667603
2019-05-10T13:05:34.051Z,23.466187
2019-05-10T13:06:32.554Z,23.294983
2019-05-10T13:07:31.359Z,23.315125
2019-05-10T13:08:32.409Z,23.2547
2019-05-10T13:09:39.117Z,23.13385
2019-05-10T13:10:36.900Z,23.113708
2019-05-10T13:11:32.447Z,23.113708
2019-05-10T13:12:31.440Z,23.043213
2019-05-10T13:13:32.135Z,22.992859
2019-05-10T13:14:31.177Z,22.912292
2019-05-10T13:15:33.269Z,22.771301
2019-05-10T13:19:32.087Z,22.50946
2019-05-10T13:20:36.448Z,22.610168
2019-05-10T13:21:31.272Z,22.579956
2019-05-10T13:22:36.565Z,22.559814
2019-05-10T13:23:32.372Z,22.559814
2019-05-10T13:24:31.267Z,22.469177
2019-05-10T13:25:31.252Z,22.579956
2019-05-10T13:26:31.010Z,22.529602
2019-05-10T13:27:30.999Z,22.459106
2019-05-10T13:28:31.274Z,22.50946
2019-05-10T13:29:31.137Z,22.37854
2019-05-10T13:30:30.982Z,22.408752
2019-05-10T13:31:30.957Z,22.680664
2019-05-10T13:32:32.027Z,22.670593
2019-05-10T13:33:40.591Z,22.650452
2019-05-10T13:34:32.084Z,22.650452
2019-05-10T13:35:30.954Z,22.63031
2019-05-10T13:36:36.968Z,22.63031
2019-05-10T13:37:31.899Z,22.590027
2019-05-10T13:38:31.125Z,22.650452
2019-05-10T13:39:32.046Z,22.700806
2019-05-10T13:40:30.890Z,22.710876
2019-05-10T13:41:31.047Z,22.731018
2019-05-10T13:42:45.719Z,22.529602
2019-05-10T13:43:33.169Z,22.368469
2019-05-10T13:44:42.767Z,22.25769
